sensor_id;sensor_type;location;lat;lon;timestamp;temperature;humidity
18225;DHT22;9237;48.590;8.854;2023-04-06T00:00:26;0.40;99.90
18225;DHT22;9237;48.590;8.854;2023-04-06T00:02:53;-1.00;99.90
18225;DHT22;9237;48.590;8.854;2023-04-06T00:05:22;-0.70;99.90
18225;DHT22;9237;48.590;8.854;2023-04-06T00:07:49;-1.20;99.90
18225;DHT22;9237;48.590;8.854;2023-04-06T00:10:16;0.00;99.90
18225;DHT22;9237;48.590;8.854;2023-04-06T00:12:43;-0.90;99.90
18225;DHT22;9237;48.590;8.854;2023-04-06T00:15:11;-1.40;99.90
18225;DHT22;9237;48.590;8.854;2023-04-06T00:17:38;-1.40;99.90
18225;DHT22;9237;48.590;8.854;2023-04-06T00:20:06;-1.50;99.90
18225;DHT22;9237;48.590;8.854;2023-04-06T00:22:35;-1.60;99.90
18225;DHT22;9237;48.590;8.854;2023-04-06T00:25:02;-1.60;99.90
18225;DHT22;9237;48.590;8.854;2023-04-06T00:27:29;-1.60;99.90
18225;DHT22;9237;48.590;8.854;2023-04-06T00:29:56;-1.60;99.90
18225;DHT22;9237;48.590;8.854;2023-04-06T00:32:23;-1.50;99.90
18225;DHT22;9237;48.590;8.854;2023-04-06T00:34:50;-0.30;99.90
18225;DHT22;9237;48.590;8.854;2023-04-06T00:37:17;-1.20;99.90
18225;DHT22;9237;48.590;8.854;2023-04-06T00:39:46;-1.60;99.90
18225;DHT22;9237;48.590;8.854;2023-04-06T00:42:13;-1.60;99.90
18225;DHT22;9237;48.590;8.854;2023-04-06T00:44:40;-1.70;99.90
18225;DHT22;9237;48.590;8.854;2023-04-06T00:47:07;-1.80;99.90
18225;DHT22;9237;48.590;8.854;2023-04-06T00:49:34;-1.80;99.90
18225;DHT22;9237;48.590;8.854;2023-04-06T00:52:02;-1.90;99.90
18225;DHT22;9237;48.590;8.854;2023-04-06T00:54:29;-2.00;99.90
18225;DHT22;9237;48.590;8.854;2023-04-06T00:56:57;-2.00;99.90
18225;DHT22;9237;48.590;8.854;2023-04-06T00:59:25;-2.10;99.90
18225;DHT22;9237;48.590;8.854;2023-04-06T01:01:53;-2.10;99.90
18225;DHT22;9237;48.590;8.854;2023-04-06T01:04:20;-2.10;99.90
18225;DHT22;9237;48.590;8.854;2023-04-06T01:06:48;-2.10;99.90
18225;DHT22;9237;48.590;8.854;2023-04-06T01:09:15;-0.70;99.90
18225;DHT22;9237;48.590;8.854;2023-04-06T01:11:42;-2.00;99.90
18225;DHT22;9237;48.590;8.854;2023-04-06T01:14:11;-2.10;99.90
18225;DHT22;9237;48.590;8.854;2023-04-06T01:16:38;-2.20;99.90
18225;DHT22;9237;48.590;8.854;2023-04-06T01:19:07;-2.20;99.90
18225;DHT22;9237;48.590;8.854;2023-04-06T01:21:35;-2.30;99.90
18225;DHT22;9237;48.590;8.854;2023-04-06T01:24:04;-1.80;99.90
18225;DHT22;9237;48.590;8.854;2023-04-06T01:26:31;-2.20;99.90
18225;DHT22;9237;48.590;8.854;2023-04-06T01:28:58;-2.20;99.90
18225;DHT22;9237;48.590;8.854;2023-04-06T01:31:26;-2.20;99.90
18225;DHT22;9237;48.590;8.854;2023-04-06T01:33:53;-2.10;99.90
18225;DHT22;9237;48.590;8.854;2023-04-06T01:36:20;-0.80;99.90
18225;DHT22;9237;48.590;8.854;2023-04-06T01:38:47;-2.00;99.90
18225;DHT22;9237;48.590;8.854;2023-04-06T01:41:15;-2.00;99.90
18225;DHT22;9237;48.590;8.854;2023-04-06T01:43:44;-2.10;99.90
18225;DHT22;9237;48.590;8.854;2023-04-06T01:46:11;-2.10;99.90
18225;DHT22;9237;48.590;8.854;2023-04-06T01:48:38;-1.60;99.90
18225;DHT22;9237;48.590;8.854;2023-04-06T01:51:05;-2.20;99.90
18225;DHT22;9237;48.590;8.854;2023-04-06T01:53:32;-2.40;99.90
18225;DHT22;9237;48.590;8.854;2023-04-06T01:55:59;-2.50;99.90
18225;DHT22;9237;48.590;8.854;2023-04-06T01:58:27;-2.60;99.90
18225;DHT22;9237;48.590;8.854;2023-04-06T02:00:54;-2.60;99.90
18225;DHT22;9237;48.590;8.854;2023-04-06T02:03:21;-2.60;99.90
18225;DHT22;9237;48.590;8.854;2023-04-06T02:05:48;-2.80;99.90
18225;DHT22;9237;48.590;8.854;2023-04-06T02:08:15;-2.90;99.90
18225;DHT22;9237;48.590;8.854;2023-04-06T02:10:42;-2.90;99.90
18225;DHT22;9237;48.590;8.854;2023-04-06T02:13:09;-2.90;99.90
18225;DHT22;9237;48.590;8.854;2023-04-06T02:15:37;-2.80;99.90
18225;DHT22;9237;48.590;8.854;2023-04-06T02:18:04;-1.50;99.90
18225;DHT22;9237;48.590;8.854;2023-04-06T02:20:31;-3.20;99.90
18225;DHT22;9237;48.590;8.854;2023-04-06T02:22:59;-2.70;99.90
18225;DHT22;9237;48.590;8.854;2023-04-06T02:25:26;-2.80;99.90
18225;DHT22;9237;48.590;8.854;2023-04-06T02:27:53;-2.80;99.90
18225;DHT22;9237;48.590;8.854;2023-04-06T02:30:20;-2.80;99.90
18225;DHT22;9237;48.590;8.854;2023-04-06T02:32:48;-2.90;99.90
18225;DHT22;9237;48.590;8.854;2023-04-06T02:35:15;-3.00;99.90
18225;DHT22;9237;48.590;8.854;2023-04-06T02:37:42;-2.90;99.90
18225;DHT22;9237;48.590;8.854;2023-04-06T02:40:10;-2.90;99.90
18225;DHT22;9237;48.590;8.854;2023-04-06T02:42:36;-3.00;99.90
18225;DHT22;9237;48.590;8.854;2023-04-06T02:45:04;-3.00;99.90
18225;DHT22;9237;48.590;8.854;2023-04-06T02:47:32;-3.10;99.90
18225;DHT22;9237;48.590;8.854;2023-04-06T02:50:00;-3.00;99.90
18225;DHT22;9237;48.590;8.854;2023-04-06T02:52:27;-3.00;99.90
18225;DHT22;9237;48.590;8.854;2023-04-06T02:54:54;-2.90;99.90
18225;DHT22;9237;48.590;8.854;2023-04-06T02:57:21;-2.90;99.90
18225;DHT22;9237;48.590;8.854;2023-04-06T02:59:48;-2.90;99.90
18225;DHT22;9237;48.590;8.854;2023-04-06T03:02:14;-2.80;99.90
18225;DHT22;9237;48.590;8.854;2023-04-06T03:04:42;-2.80;99.90
18225;DHT22;9237;48.590;8.854;2023-04-06T03:07:10;-2.80;99.90
18225;DHT22;9237;48.590;8.854;2023-04-06T03:09:37;-2.80;99.90
18225;DHT22;9237;48.590;8.854;2023-04-06T03:12:05;-2.80;99.90
18225;DHT22;9237;48.590;8.854;2023-04-06T03:14:32;-2.90;99.90
18225;DHT22;9237;48.590;8.854;2023-04-06T03:16:58;-2.40;99.90
18225;DHT22;9237;48.590;8.854;2023-04-06T03:19:25;-3.20;99.90
18225;DHT22;9237;48.590;8.854;2023-04-06T03:21:52;-3.20;99.90
18225;DHT22;9237;48.590;8.854;2023-04-06T03:24:20;-3.20;99.90
18225;DHT22;9237;48.590;8.854;2023-04-06T03:26:48;-3.20;99.90
18225;DHT22;9237;48.590;8.854;2023-04-06T03:29:15;-3.30;99.90
18225;DHT22;9237;48.590;8.854;2023-04-06T03:31:42;-3.30;99.90
18225;DHT22;9237;48.590;8.854;2023-04-06T03:34:09;-3.20;99.90
18225;DHT22;9237;48.590;8.854;2023-04-06T03:36:36;-3.30;99.90
18225;DHT22;9237;48.590;8.854;2023-04-06T03:39:03;-3.30;99.90
18225;DHT22;9237;48.590;8.854;2023-04-06T03:41:31;-3.30;99.90
18225;DHT22;9237;48.590;8.854;2023-04-06T03:43:58;-3.40;99.90
18225;DHT22;9237;48.590;8.854;2023-04-06T03:46:25;-3.40;99.90
18225;DHT22;9237;48.590;8.854;2023-04-06T03:48:52;-3.40;99.90
18225;DHT22;9237;48.590;8.854;2023-04-06T03:51:19;-3.40;99.90
18225;DHT22;9237;48.590;8.854;2023-04-06T03:53:46;-3.40;99.90
18225;DHT22;9237;48.590;8.854;2023-04-06T03:56:13;-3.40;99.90
18225;DHT22;9237;48.590;8.854;2023-04-06T03:58:41;-3.40;99.90
18225;DHT22;9237;48.590;8.854;2023-04-06T04:01:10;-3.40;99.90
18225;DHT22;9237;48.590;8.854;2023-04-06T04:03:36;-3.20;99.90
18225;DHT22;9237;48.590;8.854;2023-04-06T04:06:03;-3.10;99.90
18225;DHT22;9237;48.590;8.854;2023-04-06T04:08:31;-3.20;99.90
18225;DHT22;9237;48.590;8.854;2023-04-06T04:10:58;-3.30;99.90
18225;DHT22;9237;48.590;8.854;2023-04-06T04:13:25;-3.40;99.90
18225;DHT22;9237;48.590;8.854;2023-04-06T04:15:53;-3.40;99.90
18225;DHT22;9237;48.590;8.854;2023-04-06T04:18:20;-3.50;99.90
18225;DHT22;9237;48.590;8.854;2023-04-06T04:20:47;-3.60;99.90
18225;DHT22;9237;48.590;8.854;2023-04-06T04:23:14;-3.60;99.90
18225;DHT22;9237;48.590;8.854;2023-04-06T04:25:43;-3.60;99.90
18225;DHT22;9237;48.590;8.854;2023-04-06T04:28:10;-3.60;99.90
18225;DHT22;9237;48.590;8.854;2023-04-06T04:30:37;-3.60;99.90
18225;DHT22;9237;48.590;8.854;2023-04-06T04:33:05;-3.50;99.90
18225;DHT22;9237;48.590;8.854;2023-04-06T04:35:32;-3.60;99.90
18225;DHT22;9237;48.590;8.854;2023-04-06T04:37:58;-3.60;99.90
18225;DHT22;9237;48.590;8.854;2023-04-06T04:40:25;-3.70;99.90
18225;DHT22;9237;48.590;8.854;2023-04-06T04:42:52;-3.60;99.90
18225;DHT22;9237;48.590;8.854;2023-04-06T04:45:19;-3.70;99.90
18225;DHT22;9237;48.590;8.854;2023-04-06T04:47:46;-3.70;99.90
18225;DHT22;9237;48.590;8.854;2023-04-06T04:50:14;-3.70;99.90
18225;DHT22;9237;48.590;8.854;2023-04-06T04:52:41;-3.70;99.90
18225;DHT22;9237;48.590;8.854;2023-04-06T04:55:08;-3.70;99.90
18225;DHT22;9237;48.590;8.854;2023-04-06T04:57:35;-3.70;99.90
18225;DHT22;9237;48.590;8.854;2023-04-06T05:00:02;-3.70;99.90
18225;DHT22;9237;48.590;8.854;2023-04-06T05:02:29;-3.70;99.90
18225;DHT22;9237;48.590;8.854;2023-04-06T05:04:56;-3.70;99.90
18225;DHT22;9237;48.590;8.854;2023-04-06T05:07:24;-3.70;99.90
18225;DHT22;9237;48.590;8.854;2023-04-06T05:09:51;-3.70;99.90
18225;DHT22;9237;48.590;8.854;2023-04-06T05:12:18;-3.50;99.90
18225;DHT22;9237;48.590;8.854;2023-04-06T05:14:45;-3.30;99.90
18225;DHT22;9237;48.590;8.854;2023-04-06T05:17:12;-3.20;99.90
18225;DHT22;9237;48.590;8.854;2023-04-06T05:19:39;-3.20;99.90
18225;DHT22;9237;48.590;8.854;2023-04-06T05:22:06;-3.10;99.90
18225;DHT22;9237;48.590;8.854;2023-04-06T05:24:35;-2.90;99.90
18225;DHT22;9237;48.590;8.854;2023-04-06T05:27:02;-2.70;99.90
18225;DHT22;9237;48.590;8.854;2023-04-06T05:29:29;-2.70;99.90
18225;DHT22;9237;48.590;8.854;2023-04-06T05:31:56;-2.70;99.90
18225;DHT22;9237;48.590;8.854;2023-04-06T05:34:23;-1.30;99.90
18225;DHT22;9237;48.590;8.854;2023-04-06T05:36:50;-2.50;99.90
18225;DHT22;9237;48.590;8.854;2023-04-06T05:39:17;-2.50;99.90
18225;DHT22;9237;48.590;8.854;2023-04-06T05:41:45;-2.50;99.90
18225;DHT22;9237;48.590;8.854;2023-04-06T05:44:12;-2.50;99.90
18225;DHT22;9237;48.590;8.854;2023-04-06T05:46:39;-2.20;99.90
18225;DHT22;9237;48.590;8.854;2023-04-06T05:49:06;-1.90;99.90
18225;DHT22;9237;48.590;8.854;2023-04-06T05:51:33;-1.60;99.90
18225;DHT22;9237;48.590;8.854;2023-04-06T05:54:00;-1.50;99.90
18225;DHT22;9237;48.590;8.854;2023-04-06T05:56:26;-1.30;99.90
18225;DHT22;9237;48.590;8.854;2023-04-06T05:58:57;-1.10;99.90
18225;DHT22;9237;48.590;8.854;2023-04-06T06:01:23;-0.80;99.90
18225;DHT22;9237;48.590;8.854;2023-04-06T06:03:50;-0.60;99.90
18225;DHT22;9237;48.590;8.854;2023-04-06T06:06:17;-0.40;99.90
18225;DHT22;9237;48.590;8.854;2023-04-06T06:08:44;-0.10;99.90
18225;DHT22;9237;48.590;8.854;2023-04-06T06:11:11;0.40;99.90
18225;DHT22;9237;48.590;8.854;2023-04-06T06:13:38;0.40;99.90
18225;DHT22;9237;48.590;8.854;2023-04-06T06:16:06;0.80;99.90
18225;DHT22;9237;48.590;8.854;2023-04-06T06:18:33;1.30;99.90
18225;DHT22;9237;48.590;8.854;2023-04-06T06:21:02;1.70;99.90
18225;DHT22;9237;48.590;8.854;2023-04-06T06:23:29;2.10;99.90
18225;DHT22;9237;48.590;8.854;2023-04-06T06:25:56;2.50;99.90
18225;DHT22;9237;48.590;8.854;2023-04-06T06:28:23;2.90;99.90
18225;DHT22;9237;48.590;8.854;2023-04-06T06:30:51;3.20;99.90
18225;DHT22;9237;48.590;8.854;2023-04-06T06:33:20;3.40;99.90
18225;DHT22;9237;48.590;8.854;2023-04-06T06:35:47;3.40;99.90
18225;DHT22;9237;48.590;8.854;2023-04-06T06:38:13;3.50;99.90
18225;DHT22;9237;48.590;8.854;2023-04-06T06:40:40;3.80;99.90
18225;DHT22;9237;48.590;8.854;2023-04-06T06:43:07;4.20;99.90
18225;DHT22;9237;48.590;8.854;2023-04-06T06:45:34;4.20;99.90
18225;DHT22;9237;48.590;8.854;2023-04-06T06:48:01;4.20;99.90
18225;DHT22;9237;48.590;8.854;2023-04-06T06:50:29;4.10;99.90
18225;DHT22;9237;48.590;8.854;2023-04-06T06:52:56;4.20;99.90
18225;DHT22;9237;48.590;8.854;2023-04-06T06:55:23;4.10;99.90
18225;DHT22;9237;48.590;8.854;2023-04-06T06:57:51;4.40;99.80
18225;DHT22;9237;48.590;8.854;2023-04-06T07:00:18;4.60;99.50
18225;DHT22;9237;48.590;8.854;2023-04-06T07:02:46;4.60;98.60
18225;DHT22;9237;48.590;8.854;2023-04-06T07:05:13;4.60;98.70
18225;DHT22;9237;48.590;8.854;2023-04-06T07:07:42;4.60;97.90
18225;DHT22;9237;48.590;8.854;2023-04-06T07:10:09;5.00;98.10
18225;DHT22;9237;48.590;8.854;2023-04-06T07:12:36;5.10;97.40
18225;DHT22;9237;48.590;8.854;2023-04-06T07:15:04;5.30;96.80
18225;DHT22;9237;48.590;8.854;2023-04-06T07:17:31;5.40;95.90
18225;DHT22;9237;48.590;8.854;2023-04-06T07:19:58;5.40;95.50
18225;DHT22;9237;48.590;8.854;2023-04-06T07:22:25;5.90;96.00
18225;DHT22;9237;48.590;8.854;2023-04-06T07:24:53;6.20;95.30
18225;DHT22;9237;48.590;8.854;2023-04-06T07:27:20;6.70;94.90
18225;DHT22;9237;48.590;8.854;2023-04-06T07:29:47;6.40;94.40
18225;DHT22;9237;48.590;8.854;2023-04-06T07:32:14;6.60;93.20
18225;DHT22;9237;48.590;8.854;2023-04-06T07:34:41;6.90;93.70
18225;DHT22;9237;48.590;8.854;2023-04-06T07:37:08;7.30;93.40
18225;DHT22;9237;48.590;8.854;2023-04-06T07:39:35;7.20;91.90
18225;DHT22;9237;48.590;8.854;2023-04-06T07:42:03;7.60;92.50
18225;DHT22;9237;48.590;8.854;2023-04-06T07:44:30;7.50;91.80
18225;DHT22;9237;48.590;8.854;2023-04-06T07:46:57;7.90;92.10
18225;DHT22;9237;48.590;8.854;2023-04-06T07:49:24;8.30;91.40
18225;DHT22;9237;48.590;8.854;2023-04-06T07:51:51;8.10;90.90
18225;DHT22;9237;48.590;8.854;2023-04-06T07:54:18;8.40;91.00
18225;DHT22;9237;48.590;8.854;2023-04-06T07:56:45;9.00;90.00
18225;DHT22;9237;48.590;8.854;2023-04-06T07:59:13;9.20;90.10
18225;DHT22;9237;48.590;8.854;2023-04-06T08:01:40;9.30;89.30
18225;DHT22;9237;48.590;8.854;2023-04-06T08:04:07;9.20;88.90
18225;DHT22;9237;48.590;8.854;2023-04-06T08:06:34;9.50;88.60
18225;DHT22;9237;48.590;8.854;2023-04-06T08:09:02;9.70;87.30
18225;DHT22;9237;48.590;8.854;2023-04-06T08:11:29;9.10;87.00
18225;DHT22;9237;48.590;8.854;2023-04-06T08:13:56;9.60;88.40
18225;DHT22;9237;48.590;8.854;2023-04-06T08:16:25;10.10;86.00
18225;DHT22;9237;48.590;8.854;2023-04-06T08:18:52;10.30;85.20
18225;DHT22;9237;48.590;8.854;2023-04-06T08:21:19;10.50;86.20
18225;DHT22;9237;48.590;8.854;2023-04-06T08:23:46;10.80;82.70
18225;DHT22;9237;48.590;8.854;2023-04-06T08:26:13;11.10;81.70
18225;DHT22;9237;48.590;8.854;2023-04-06T08:28:40;11.40;80.80
18225;DHT22;9237;48.590;8.854;2023-04-06T08:31:07;11.70;79.90
18225;DHT22;9237;48.590;8.854;2023-04-06T08:33:35;12.00;80.60
18225;DHT22;9237;48.590;8.854;2023-04-06T08:36:09;12.30;77.80
18225;DHT22;9237;48.590;8.854;2023-04-06T08:38:36;12.30;74.60
18225;DHT22;9237;48.590;8.854;2023-04-06T08:41:07;12.40;77.50
18225;DHT22;9237;48.590;8.854;2023-04-06T08:43:40;12.50;76.20
18225;DHT22;9237;48.590;8.854;2023-04-06T08:46:08;12.80;75.30
18225;DHT22;9237;48.590;8.854;2023-04-06T08:48:37;13.10;74.20
18225;DHT22;9237;48.590;8.854;2023-04-06T08:51:05;13.30;72.30
18225;DHT22;9237;48.590;8.854;2023-04-06T08:53:32;13.50;71.50
18225;DHT22;9237;48.590;8.854;2023-04-06T08:55:59;13.90;70.20
18225;DHT22;9237;48.590;8.854;2023-04-06T08:58:28;13.80;70.60
18225;DHT22;9237;48.590;8.854;2023-04-06T09:00:57;13.40;67.70
18225;DHT22;9237;48.590;8.854;2023-04-06T09:03:26;13.20;68.50
18225;DHT22;9237;48.590;8.854;2023-04-06T09:05:55;13.70;71.60
18225;DHT22;9237;48.590;8.854;2023-04-06T09:08:22;14.40;68.70
18225;DHT22;9237;48.590;8.854;2023-04-06T09:10:49;14.90;65.80
18225;DHT22;9237;48.590;8.854;2023-04-06T09:13:17;15.00;64.80
18225;DHT22;9237;48.590;8.854;2023-04-06T09:15:44;14.80;63.40
18225;DHT22;9237;48.590;8.854;2023-04-06T09:18:11;14.60;63.90
18225;DHT22;9237;48.590;8.854;2023-04-06T09:20:38;14.90;63.90
18225;DHT22;9237;48.590;8.854;2023-04-06T09:23:06;15.10;63.10
18225;DHT22;9237;48.590;8.854;2023-04-06T09:25:33;15.70;60.80
18225;DHT22;9237;48.590;8.854;2023-04-06T09:28:01;15.10;57.50
18225;DHT22;9237;48.590;8.854;2023-04-06T09:30:28;15.50;59.70
18225;DHT22;9237;48.590;8.854;2023-04-06T09:32:56;15.50;56.30
18225;DHT22;9237;48.590;8.854;2023-04-06T09:35:24;15.30;56.80
18225;DHT22;9237;48.590;8.854;2023-04-06T09:37:53;15.00;53.60
18225;DHT22;9237;48.590;8.854;2023-04-06T09:40:22;15.70;55.20
18225;DHT22;9237;48.590;8.854;2023-04-06T09:42:50;15.30;56.90
18225;DHT22;9237;48.590;8.854;2023-04-06T09:45:20;16.10;57.10
18225;DHT22;9237;48.590;8.854;2023-04-06T09:47:47;16.90;56.30
18225;DHT22;9237;48.590;8.854;2023-04-06T09:50:15;16.90;52.20
18225;DHT22;9237;48.590;8.854;2023-04-06T09:52:46;17.00;51.60
18225;DHT22;9237;48.590;8.854;2023-04-06T09:55:17;17.10;51.20
18225;DHT22;9237;48.590;8.854;2023-04-06T09:57:52;16.80;50.80
18225;DHT22;9237;48.590;8.854;2023-04-06T10:00:22;17.00;50.40
18225;DHT22;9237;48.590;8.854;2023-04-06T10:02:56;16.50;49.20
18225;DHT22;9237;48.590;8.854;2023-04-06T10:05:29;16.70;51.60
18225;DHT22;9237;48.590;8.854;2023-04-06T10:08:00;16.70;49.80
18225;DHT22;9237;48.590;8.854;2023-04-06T10:10:29;17.10;50.70
18225;DHT22;9237;48.590;8.854;2023-04-06T10:12:58;17.30;46.40
18225;DHT22;9237;48.590;8.854;2023-04-06T10:15:27;17.10;50.30
18225;DHT22;9237;48.590;8.854;2023-04-06T10:17:54;17.20;48.80
18225;DHT22;9237;48.590;8.854;2023-04-06T10:20:25;17.40;49.30
18225;DHT22;9237;48.590;8.854;2023-04-06T10:22:57;17.70;48.60
18225;DHT22;9237;48.590;8.854;2023-04-06T10:25:28;17.50;47.60
18225;DHT22;9237;48.590;8.854;2023-04-06T10:28:01;17.60;49.50
18225;DHT22;9237;48.590;8.854;2023-04-06T10:30:28;17.90;48.00
18225;DHT22;9237;48.590;8.854;2023-04-06T10:32:56;17.50;48.80
18225;DHT22;9237;48.590;8.854;2023-04-06T10:35:23;16.80;46.40
18225;DHT22;9237;48.590;8.854;2023-04-06T10:37:52;17.30;47.50
18225;DHT22;9237;48.590;8.854;2023-04-06T10:40:21;17.80;47.40
18225;DHT22;9237;48.590;8.854;2023-04-06T10:42:48;18.40;43.90
18225;DHT22;9237;48.590;8.854;2023-04-06T10:45:24;18.30;43.30
18225;DHT22;9237;48.590;8.854;2023-04-06T10:47:53;18.50;42.60
18225;DHT22;9237;48.590;8.854;2023-04-06T10:50:20;18.00;42.40
18225;DHT22;9237;48.590;8.854;2023-04-06T10:52:47;17.50;43.00
18225;DHT22;9237;48.590;8.854;2023-04-06T10:55:26;17.50;44.20
18225;DHT22;9237;48.590;8.854;2023-04-06T10:57:53;18.10;43.80
18225;DHT22;9237;48.590;8.854;2023-04-06T11:00:20;18.20;42.90
18225;DHT22;9237;48.590;8.854;2023-04-06T11:02:48;18.10;45.10
18225;DHT22;9237;48.590;8.854;2023-04-06T11:05:15;18.00;44.70
18225;DHT22;9237;48.590;8.854;2023-04-06T11:07:44;18.00;44.30
18225;DHT22;9237;48.590;8.854;2023-04-06T11:10:11;18.00;44.30
18225;DHT22;9237;48.590;8.854;2023-04-06T11:12:38;17.70;45.70
18225;DHT22;9237;48.590;8.854;2023-04-06T11:15:06;17.50;44.80
18225;DHT22;9237;48.590;8.854;2023-04-06T11:17:36;17.90;46.90
18225;DHT22;9237;48.590;8.854;2023-04-06T11:20:10;17.80;42.30
18225;DHT22;9237;48.590;8.854;2023-04-06T11:22:48;17.80;43.40
18225;DHT22;9237;48.590;8.854;2023-04-06T11:25:15;18.20;43.60
18225;DHT22;9237;48.590;8.854;2023-04-06T11:27:43;18.70;42.70
18225;DHT22;9237;48.590;8.854;2023-04-06T11:30:11;18.10;42.40
18225;DHT22;9237;48.590;8.854;2023-04-06T11:32:40;18.20;43.90
18225;DHT22;9237;48.590;8.854;2023-04-06T11:35:11;18.50;43.40
18225;DHT22;9237;48.590;8.854;2023-04-06T11:37:38;18.40;43.60
18225;DHT22;9237;48.590;8.854;2023-04-06T11:40:08;18.60;43.60
18225;DHT22;9237;48.590;8.854;2023-04-06T11:42:36;18.10;43.70
18225;DHT22;9237;48.590;8.854;2023-04-06T11:45:03;17.80;44.70
18225;DHT22;9237;48.590;8.854;2023-04-06T11:47:32;17.00;44.00
18225;DHT22;9237;48.590;8.854;2023-04-06T11:50:06;16.60;44.70
18225;DHT22;9237;48.590;8.854;2023-04-06T11:52:35;16.10;43.60
18225;DHT22;9237;48.590;8.854;2023-04-06T11:55:11;15.30;43.60
18225;DHT22;9237;48.590;8.854;2023-04-06T11:57:38;15.50;43.40
18225;DHT22;9237;48.590;8.854;2023-04-06T12:00:06;15.10;45.20
18225;DHT22;9237;48.590;8.854;2023-04-06T12:02:34;14.30;45.20
18225;DHT22;9237;48.590;8.854;2023-04-06T12:05:01;14.70;46.90
18225;DHT22;9237;48.590;8.854;2023-04-06T12:07:29;14.10;46.00
18225;DHT22;9237;48.590;8.854;2023-04-06T12:09:57;13.50;48.10
18225;DHT22;9237;48.590;8.854;2023-04-06T12:12:25;13.70;49.80
18225;DHT22;9237;48.590;8.854;2023-04-06T12:14:52;14.20;50.70
18225;DHT22;9237;48.590;8.854;2023-04-06T12:17:19;14.50;49.60
18225;DHT22;9237;48.590;8.854;2023-04-06T12:19:46;15.10;50.10
18225;DHT22;9237;48.590;8.854;2023-04-06T12:22:13;15.30;49.70
18225;DHT22;9237;48.590;8.854;2023-04-06T12:24:40;14.90;46.10
18225;DHT22;9237;48.590;8.854;2023-04-06T12:27:08;15.10;46.70
18225;DHT22;9237;48.590;8.854;2023-04-06T12:29:37;15.70;46.20
18225;DHT22;9237;48.590;8.854;2023-04-06T12:32:03;16.90;44.70
18225;DHT22;9237;48.590;8.854;2023-04-06T12:34:30;18.00;43.80
18225;DHT22;9237;48.590;8.854;2023-04-06T12:36:57;18.80;42.10
18225;DHT22;9237;48.590;8.854;2023-04-06T12:39:25;19.40;42.40
18225;DHT22;9237;48.590;8.854;2023-04-06T12:41:52;19.00;40.10
18225;DHT22;9237;48.590;8.854;2023-04-06T12:44:21;19.00;41.20
18225;DHT22;9237;48.590;8.854;2023-04-06T12:46:47;18.50;40.70
18225;DHT22;9237;48.590;8.854;2023-04-06T12:49:15;18.00;41.40
18225;DHT22;9237;48.590;8.854;2023-04-06T12:51:44;16.50;43.00
18225;DHT22;9237;48.590;8.854;2023-04-06T12:54:11;16.70;43.80
18225;DHT22;9237;48.590;8.854;2023-04-06T12:56:38;17.20;42.90
18225;DHT22;9237;48.590;8.854;2023-04-06T12:59:05;17.50;43.80
18225;DHT22;9237;48.590;8.854;2023-04-06T13:01:34;17.20;44.50
18225;DHT22;9237;48.590;8.854;2023-04-06T13:04:01;17.40;45.00
18225;DHT22;9237;48.590;8.854;2023-04-06T13:06:28;17.30;44.00
18225;DHT22;9237;48.590;8.854;2023-04-06T13:08:55;17.00;42.00
18225;DHT22;9237;48.590;8.854;2023-04-06T13:11:22;17.00;42.70
18225;DHT22;9237;48.590;8.854;2023-04-06T13:13:50;15.70;44.50
18225;DHT22;9237;48.590;8.854;2023-04-06T13:16:17;15.40;44.60
18225;DHT22;9237;48.590;8.854;2023-04-06T13:18:46;15.90;45.80
18225;DHT22;9237;48.590;8.854;2023-04-06T13:21:14;16.10;45.50
18225;DHT22;9237;48.590;8.854;2023-04-06T13:23:42;16.20;44.00
18225;DHT22;9237;48.590;8.854;2023-04-06T13:26:09;15.70;45.20
18225;DHT22;9237;48.590;8.854;2023-04-06T13:28:37;15.60;45.20
18225;DHT22;9237;48.590;8.854;2023-04-06T13:31:05;15.80;45.20
18225;DHT22;9237;48.590;8.854;2023-04-06T13:33:32;16.10;45.60
18225;DHT22;9237;48.590;8.854;2023-04-06T13:36:01;16.10;44.50
18225;DHT22;9237;48.590;8.854;2023-04-06T13:38:29;15.10;46.20
18225;DHT22;9237;48.590;8.854;2023-04-06T13:40:56;15.00;45.60
18225;DHT22;9237;48.590;8.854;2023-04-06T13:43:23;15.00;46.40
18225;DHT22;9237;48.590;8.854;2023-04-06T13:45:52;15.50;46.10
18225;DHT22;9237;48.590;8.854;2023-04-06T13:48:20;16.00;45.80
18225;DHT22;9237;48.590;8.854;2023-04-06T13:50:47;16.10;45.20
18225;DHT22;9237;48.590;8.854;2023-04-06T13:53:15;16.00;46.40
18225;DHT22;9237;48.590;8.854;2023-04-06T13:55:42;16.90;45.30
18225;DHT22;9237;48.590;8.854;2023-04-06T13:58:09;16.70;44.10
18225;DHT22;9237;48.590;8.854;2023-04-06T14:00:36;16.40;43.50
18225;DHT22;9237;48.590;8.854;2023-04-06T14:03:03;16.90;44.60
18225;DHT22;9237;48.590;8.854;2023-04-06T14:05:31;17.30;44.40
18225;DHT22;9237;48.590;8.854;2023-04-06T14:07:58;17.70;43.60
18225;DHT22;9237;48.590;8.854;2023-04-06T14:10:26;16.30;44.00
18225;DHT22;9237;48.590;8.854;2023-04-06T14:12:53;16.10;48.20
18225;DHT22;9237;48.590;8.854;2023-04-06T14:15:20;15.90;48.60
18225;DHT22;9237;48.590;8.854;2023-04-06T14:17:47;15.30;46.80
18225;DHT22;9237;48.590;8.854;2023-04-06T14:20:14;14.50;46.60
18225;DHT22;9237;48.590;8.854;2023-04-06T14:22:41;14.40;48.40
18225;DHT22;9237;48.590;8.854;2023-04-06T14:25:08;14.30;47.40
18225;DHT22;9237;48.590;8.854;2023-04-06T14:27:37;13.90;48.40
18225;DHT22;9237;48.590;8.854;2023-04-06T14:30:05;13.70;49.20
18225;DHT22;9237;48.590;8.854;2023-04-06T14:32:32;14.10;49.80
18225;DHT22;9237;48.590;8.854;2023-04-06T14:34:59;13.70;48.90
18225;DHT22;9237;48.590;8.854;2023-04-06T14:37:26;13.80;49.50
18225;DHT22;9237;48.590;8.854;2023-04-06T14:39:53;14.20;50.70
18225;DHT22;9237;48.590;8.854;2023-04-06T14:42:20;14.40;49.30
18225;DHT22;9237;48.590;8.854;2023-04-06T14:44:48;14.30;49.70
18225;DHT22;9237;48.590;8.854;2023-04-06T14:47:16;13.90;49.00
18225;DHT22;9237;48.590;8.854;2023-04-06T14:49:45;13.80;50.40
18225;DHT22;9237;48.590;8.854;2023-04-06T14:52:12;13.90;50.90
18225;DHT22;9237;48.590;8.854;2023-04-06T14:54:39;14.00;50.20
18225;DHT22;9237;48.590;8.854;2023-04-06T14:57:06;13.90;50.20
18225;DHT22;9237;48.590;8.854;2023-04-06T14:59:33;13.80;52.30
18225;DHT22;9237;48.590;8.854;2023-04-06T15:02:01;13.70;50.80
18225;DHT22;9237;48.590;8.854;2023-04-06T15:04:28;13.80;50.10
18225;DHT22;9237;48.590;8.854;2023-04-06T15:06:55;13.60;50.90
18225;DHT22;9237;48.590;8.854;2023-04-06T15:09:22;13.60;52.40
18225;DHT22;9237;48.590;8.854;2023-04-06T15:11:48;13.60;51.70
18225;DHT22;9237;48.590;8.854;2023-04-06T15:14:15;13.50;53.50
18225;DHT22;9237;48.590;8.854;2023-04-06T15:16:42;13.50;52.30
18225;DHT22;9237;48.590;8.854;2023-04-06T15:19:10;13.40;53.10
18225;DHT22;9237;48.590;8.854;2023-04-06T15:21:37;13.50;51.20
18225;DHT22;9237;48.590;8.854;2023-04-06T15:24:04;13.60;52.10
18225;DHT22;9237;48.590;8.854;2023-04-06T15:26:34;13.90;52.20
18225;DHT22;9237;48.590;8.854;2023-04-06T15:29:01;14.00;50.40
18225;DHT22;9237;48.590;8.854;2023-04-06T15:31:28;13.90;50.00
18225;DHT22;9237;48.590;8.854;2023-04-06T15:33:55;14.00;51.70
18225;DHT22;9237;48.590;8.854;2023-04-06T15:36:25;13.80;48.90
18225;DHT22;9237;48.590;8.854;2023-04-06T15:38:54;13.80;49.90
18225;DHT22;9237;48.590;8.854;2023-04-06T15:41:21;14.10;50.00
18225;DHT22;9237;48.590;8.854;2023-04-06T15:43:48;14.00;50.90
18225;DHT22;9237;48.590;8.854;2023-04-06T15:46:16;14.20;49.90
18225;DHT22;9237;48.590;8.854;2023-04-06T15:48:42;14.30;51.00